sensor_id;sensor_type;location;lat;lon;timestamp;P1;durP1;ratioP1;P2;durP2;ratioP2
6735;SDS011;3405;50.576;12.364;2023-05-10T00:02:12;2.50;;;2.30;;
6735;SDS011;3405;50.576;12.364;2023-05-10T00:04:38;3.90;;;2.67;;
6735;SDS011;3405;50.576;12.364;2023-05-10T00:07:04;4.65;;;2.70;;
6735;SDS011;3405;50.576;12.364;2023-05-10T00:09:30;4.00;;;2.78;;
6735;SDS011;3405;50.576;12.364;2023-05-10T00:11:55;3.65;;;2.53;;
6735;SDS011;3405;50.576;12.364;2023-05-10T00:14:23;3.17;;;2.85;;
6735;SDS011;3405;50.576;12.364;2023-05-10T00:16:49;3.58;;;2.85;;
6735;SDS011;3405;50.576;12.364;2023-05-10T00:19:15;2.80;;;2.50;;
6735;SDS011;3405;50.576;12.364;2023-05-10T00:21:41;2.40;;;2.15;;
6735;SDS011;3405;50.576;12.364;2023-05-10T00:24:07;4.65;;;2.65;;
6735;SDS011;3405;50.576;12.364;2023-05-10T00:26:33;3.25;;;2.40;;
6735;SDS011;3405;50.576;12.364;2023-05-10T00:28:58;4.00;;;2.28;;
6735;SDS011;3405;50.576;12.364;2023-05-10T00:31:24;2.78;;;2.55;;
6735;SDS011;3405;50.576;12.364;2023-05-10T00:33:51;2.88;;;2.58;;
6735;SDS011;3405;50.576;12.364;2023-05-10T00:36:17;2.58;;;2.30;;
6735;SDS011;3405;50.576;12.364;2023-05-10T00:38:43;2.65;;;2.45;;
6735;SDS011;3405;50.576;12.364;2023-05-10T00:41:08;2.83;;;2.40;;
6735;SDS011;3405;50.576;12.364;2023-05-10T00:43:34;3.63;;;2.58;;
6735;SDS011;3405;50.576;12.364;2023-05-10T00:46:00;4.28;;;2.45;;
6735;SDS011;3405;50.576;12.364;2023-05-10T00:48:26;3.22;;;2.38;;
6735;SDS011;3405;50.576;12.364;2023-05-10T00:50:54;3.83;;;2.30;;
6735;SDS011;3405;50.576;12.364;2023-05-10T00:53:20;3.22;;;2.67;;
6735;SDS011;3405;50.576;12.364;2023-05-10T00:55:46;2.67;;;2.40;;
6735;SDS011;3405;50.576;12.364;2023-05-10T00:58:12;3.50;;;2.22;;
6735;SDS011;3405;50.576;12.364;2023-05-10T01:00:38;3.78;;;2.65;;
6735;SDS011;3405;50.576;12.364;2023-05-10T01:03:07;3.00;;;2.40;;
6735;SDS011;3405;50.576;12.364;2023-05-10T01:05:33;2.55;;;2.35;;
6735;SDS011;3405;50.576;12.364;2023-05-10T01:07:59;3.70;;;2.35;;
6735;SDS011;3405;50.576;12.364;2023-05-10T01:10:24;2.70;;;2.50;;
6735;SDS011;3405;50.576;12.364;2023-05-10T01:12:50;2.47;;;2.28;;
6735;SDS011;3405;50.576;12.364;2023-05-10T01:15:16;2.63;;;2.30;;
6735;SDS011;3405;50.576;12.364;2023-05-10T01:17:43;3.05;;;2.65;;
6735;SDS011;3405;50.576;12.364;2023-05-10T01:20:10;2.60;;;2.30;;
6735;SDS011;3405;50.576;12.364;2023-05-10T01:30:30;2.78;;;2.50;;
6735;SDS011;3405;50.576;12.364;2023-05-10T01:35:31;2.80;;;2.47;;
6735;SDS011;3405;50.576;12.364;2023-05-10T01:38:13;4.35;;;3.22;;
6735;SDS011;3405;50.576;12.364;2023-05-10T01:40:42;5.90;;;2.45;;
6735;SDS011;3405;50.576;12.364;2023-05-10T01:43:16;2.50;;;2.30;;
6735;SDS011;3405;50.576;12.364;2023-05-10T01:45:47;5.38;;;2.95;;
6735;SDS011;3405;50.576;12.364;2023-05-10T01:48:16;3.50;;;2.78;;
6735;SDS011;3405;50.576;12.364;2023-05-10T01:50:45;2.70;;;2.25;;
6735;SDS011;3405;50.576;12.364;2023-05-10T01:53:13;3.60;;;2.65;;
6735;SDS011;3405;50.576;12.364;2023-05-10T01:55:41;2.67;;;2.47;;
6735;SDS011;3405;50.576;12.364;2023-05-10T01:58:09;2.47;;;2.15;;
6735;SDS011;3405;50.576;12.364;2023-05-10T02:00:35;2.72;;;2.50;;
6735;SDS011;3405;50.576;12.364;2023-05-10T02:03:06;3.60;;;2.55;;
6735;SDS011;3405;50.576;12.364;2023-05-10T02:05:33;3.55;;;2.47;;
6735;SDS011;3405;50.576;12.364;2023-05-10T02:08:01;3.05;;;2.55;;
6735;SDS011;3405;50.576;12.364;2023-05-10T02:10:27;2.47;;;2.28;;
6735;SDS011;3405;50.576;12.364;2023-05-10T02:12:54;2.67;;;2.47;;
6735;SDS011;3405;50.576;12.364;2023-05-10T02:15:22;2.90;;;2.70;;
6735;SDS011;3405;50.576;12.364;2023-05-10T02:17:49;3.35;;;2.58;;
6735;SDS011;3405;50.576;12.364;2023-05-10T02:20:16;3.33;;;2.58;;
6735;SDS011;3405;50.576;12.364;2023-05-10T02:22:42;2.75;;;2.55;;
6735;SDS011;3405;50.576;12.364;2023-05-10T02:25:08;3.60;;;2.72;;
6735;SDS011;3405;50.576;12.364;2023-05-10T02:27:35;3.53;;;2.42;;
6735;SDS011;3405;50.576;12.364;2023-05-10T02:30:02;3.53;;;2.60;;
6735;SDS011;3405;50.576;12.364;2023-05-10T02:32:28;4.63;;;2.35;;
6735;SDS011;3405;50.576;12.364;2023-05-10T02:34:55;2.97;;;2.78;;
6735;SDS011;3405;50.576;12.364;2023-05-10T02:37:22;2.75;;;2.45;;
6735;SDS011;3405;50.576;12.364;2023-05-10T02:39:52;3.72;;;2.75;;
6735;SDS011;3405;50.576;12.364;2023-05-10T02:42:19;3.83;;;2.50;;
6735;SDS011;3405;50.576;12.364;2023-05-10T02:44:48;2.78;;;2.58;;
6735;SDS011;3405;50.576;12.364;2023-05-10T02:47:16;4.25;;;2.92;;
6735;SDS011;3405;50.576;12.364;2023-05-10T02:49:42;3.03;;;2.53;;
6735;SDS011;3405;50.576;12.364;2023-05-10T02:52:08;2.80;;;2.40;;
6735;SDS011;3405;50.576;12.364;2023-05-10T02:54:39;4.20;;;2.70;;
6735;SDS011;3405;50.576;12.364;2023-05-10T02:57:05;3.95;;;2.90;;
6735;SDS011;3405;50.576;12.364;2023-05-10T02:59:33;3.35;;;2.70;;
6735;SDS011;3405;50.576;12.364;2023-05-10T03:01:59;2.90;;;2.63;;
6735;SDS011;3405;50.576;12.364;2023-05-10T03:04:25;3.20;;;2.90;;
6735;SDS011;3405;50.576;12.364;2023-05-10T03:06:51;3.10;;;2.65;;
6735;SDS011;3405;50.576;12.364;2023-05-10T03:09:17;2.85;;;2.55;;
6735;SDS011;3405;50.576;12.364;2023-05-10T03:11:55;3.65;;;2.90;;
6735;SDS011;3405;50.576;12.364;2023-05-10T03:17:04;4.57;;;3.15;;
6735;SDS011;3405;50.576;12.364;2023-05-10T03:19:32;5.55;;;2.40;;
6735;SDS011;3405;50.576;12.364;2023-05-10T03:22:03;7.70;;;2.85;;
6735;SDS011;3405;50.576;12.364;2023-05-10T03:24:34;3.58;;;2.70;;
6735;SDS011;3405;50.576;12.364;2023-05-10T03:27:01;4.28;;;3.08;;
6735;SDS011;3405;50.576;12.364;2023-05-10T03:29:29;3.00;;;2.50;;
6735;SDS011;3405;50.576;12.364;2023-05-10T03:31:55;5.50;;;2.70;;
6735;SDS011;3405;50.576;12.364;2023-05-10T03:34:23;2.95;;;2.70;;
6735;SDS011;3405;50.576;12.364;2023-05-10T03:36:49;3.22;;;2.70;;
6735;SDS011;3405;50.576;12.364;2023-05-10T03:39:15;6.32;;;2.90;;
6735;SDS011;3405;50.576;12.364;2023-05-10T03:41:41;5.03;;;2.80;;
6735;SDS011;3405;50.576;12.364;2023-05-10T03:44:07;6.85;;;3.13;;
6735;SDS011;3405;50.576;12.364;2023-05-10T03:46:33;6.25;;;2.95;;
6735;SDS011;3405;50.576;12.364;2023-05-10T03:48:59;5.95;;;3.00;;
6735;SDS011;3405;50.576;12.364;2023-05-10T03:51:25;6.70;;;2.92;;
6735;SDS011;3405;50.576;12.364;2023-05-10T03:53:53;6.10;;;2.83;;
6735;SDS011;3405;50.576;12.364;2023-05-10T03:56:19;15.63;;;5.28;;
6735;SDS011;3405;50.576;12.364;2023-05-10T03:58:45;49.95;;;11.77;;
6735;SDS011;3405;50.576;12.364;2023-05-10T04:01:11;62.05;;;14.38;;
6735;SDS011;3405;50.576;12.364;2023-05-10T04:03:38;40.55;;;9.65;;
6735;SDS011;3405;50.576;12.364;2023-05-10T04:06:04;40.25;;;9.68;;
6735;SDS011;3405;50.576;12.364;2023-05-10T04:08:30;41.38;;;10.38;;
6735;SDS011;3405;50.576;12.364;2023-05-10T04:11:09;43.95;;;11.15;;
6735;SDS011;3405;50.576;12.364;2023-05-10T04:13:35;38.78;;;10.98;;
6735;SDS011;3405;50.576;12.364;2023-05-10T04:16:02;47.67;;;11.88;;
6735;SDS011;3405;50.576;12.364;2023-05-10T04:18:28;35.20;;;10.68;;
6735;SDS011;3405;50.576;12.364;2023-05-10T04:20:54;42.97;;;11.40;;
6735;SDS011;3405;50.576;12.364;2023-05-10T04:23:20;36.50;;;10.30;;
6735;SDS011;3405;50.576;12.364;2023-05-10T04:25:45;41.83;;;10.40;;
6735;SDS011;3405;50.576;12.364;2023-05-10T04:28:11;43.67;;;11.00;;
6735;SDS011;3405;50.576;12.364;2023-05-10T04:30:37;44.33;;;11.02;;
6735;SDS011;3405;50.576;12.364;2023-05-10T04:33:03;45.03;;;11.45;;
6735;SDS011;3405;50.576;12.364;2023-05-10T04:35:29;37.05;;;10.63;;
6735;SDS011;3405;50.576;12.364;2023-05-10T04:37:55;35.30;;;10.93;;
6735;SDS011;3405;50.576;12.364;2023-05-10T04:40:21;31.55;;;10.82;;
6735;SDS011;3405;50.576;12.364;2023-05-10T04:42:47;34.35;;;10.07;;
6735;SDS011;3405;50.576;12.364;2023-05-10T04:45:13;37.55;;;9.88;;
6735;SDS011;3405;50.576;12.364;2023-05-10T04:47:42;42.63;;;10.57;;
6735;SDS011;3405;50.576;12.364;2023-05-10T04:50:08;34.33;;;10.20;;
6735;SDS011;3405;50.576;12.364;2023-05-10T04:52:34;32.17;;;10.07;;
6735;SDS011;3405;50.576;12.364;2023-05-10T04:55:00;32.17;;;9.32;;
6735;SDS011;3405;50.576;12.364;2023-05-10T04:57:26;29.38;;;9.38;;
6735;SDS011;3405;50.576;12.364;2023-05-10T04:59:52;33.78;;;10.45;;
6735;SDS011;3405;50.576;12.364;2023-05-10T05:02:18;25.52;;;9.20;;
6735;SDS011;3405;50.576;12.364;2023-05-10T05:04:43;30.30;;;10.00;;
6735;SDS011;3405;50.576;12.364;2023-05-10T05:07:09;26.10;;;9.45;;
6735;SDS011;3405;50.576;12.364;2023-05-10T05:09:35;28.65;;;9.15;;
6735;SDS011;3405;50.576;12.364;2023-05-10T05:12:01;29.30;;;9.45;;
6735;SDS011;3405;50.576;12.364;2023-05-10T05:14:27;27.42;;;8.77;;
6735;SDS011;3405;50.576;12.364;2023-05-10T05:16:53;25.33;;;8.98;;
6735;SDS011;3405;50.576;12.364;2023-05-10T05:19:19;25.38;;;9.82;;
6735;SDS011;3405;50.576;12.364;2023-05-10T05:21:45;31.35;;;9.00;;
6735;SDS011;3405;50.576;12.364;2023-05-10T05:24:11;27.40;;;9.55;;
6735;SDS011;3405;50.576;12.364;2023-05-10T05:26:37;24.05;;;7.55;;
6735;SDS011;3405;50.576;12.364;2023-05-10T05:29:03;28.30;;;8.63;;
6735;SDS011;3405;50.576;12.364;2023-05-10T05:31:29;28.50;;;9.13;;
6735;SDS011;3405;50.576;12.364;2023-05-10T05:33:55;27.52;;;9.18;;
6735;SDS011;3405;50.576;12.364;2023-05-10T05:36:21;21.85;;;7.63;;
6735;SDS011;3405;50.576;12.364;2023-05-10T05:38:47;21.35;;;7.60;;
6735;SDS011;3405;50.576;12.364;2023-05-10T05:41:13;16.95;;;7.18;;
6735;SDS011;3405;50.576;12.364;2023-05-10T05:43:39;17.92;;;7.25;;
6735;SDS011;3405;50.576;12.364;2023-05-10T05:46:05;18.27;;;7.20;;
6735;SDS011;3405;50.576;12.364;2023-05-10T05:48:31;21.05;;;7.53;;
6735;SDS011;3405;50.576;12.364;2023-05-10T05:50:57;16.27;;;6.93;;
6735;SDS011;3405;50.576;12.364;2023-05-10T05:53:24;23.67;;;7.72;;
6735;SDS011;3405;50.576;12.364;2023-05-10T05:55:53;22.55;;;8.43;;
6735;SDS011;3405;50.576;12.364;2023-05-10T05:58:20;20.08;;;6.88;;
6735;SDS011;3405;50.576;12.364;2023-05-10T06:00:46;16.38;;;6.35;;
6735;SDS011;3405;50.576;12.364;2023-05-10T06:03:12;19.52;;;6.63;;
6735;SDS011;3405;50.576;12.364;2023-05-10T06:05:38;20.02;;;7.10;;
6735;SDS011;3405;50.576;12.364;2023-05-10T06:08:04;18.42;;;7.07;;
6735;SDS011;3405;50.576;12.364;2023-05-10T06:10:30;15.77;;;6.68;;
6735;SDS011;3405;50.576;12.364;2023-05-10T06:12:56;20.85;;;6.63;;
6735;SDS011;3405;50.576;12.364;2023-05-10T06:15:22;17.42;;;6.53;;
6735;SDS011;3405;50.576;12.364;2023-05-10T06:17:47;16.27;;;6.60;;
6735;SDS011;3405;50.576;12.364;2023-05-10T06:20:16;15.10;;;5.85;;
6735;SDS011;3405;50.576;12.364;2023-05-10T06:22:42;14.93;;;5.88;;
6735;SDS011;3405;50.576;12.364;2023-05-10T06:25:08;14.18;;;6.13;;
6735;SDS011;3405;50.576;12.364;2023-05-10T06:27:34;12.65;;;5.95;;
6735;SDS011;3405;50.576;12.364;2023-05-10T06:30:00;13.85;;;5.70;;
6735;SDS011;3405;50.576;12.364;2023-05-10T06:32:27;13.88;;;5.93;;
6735;SDS011;3405;50.576;12.364;2023-05-10T06:34:53;12.82;;;5.63;;
6735;SDS011;3405;50.576;12.364;2023-05-10T06:37:19;13.88;;;6.07;;
6735;SDS011;3405;50.576;12.364;2023-05-10T06:39:45;16.27;;;5.88;;
6735;SDS011;3405;50.576;12.364;2023-05-10T06:42:11;12.10;;;5.40;;
6735;SDS011;3405;50.576;12.364;2023-05-10T06:44:37;15.43;;;6.20;;
6735;SDS011;3405;50.576;12.364;2023-05-10T06:47:02;13.05;;;5.72;;
6735;SDS011;3405;50.576;12.364;2023-05-10T06:49:28;11.18;;;5.15;;
6735;SDS011;3405;50.576;12.364;2023-05-10T06:51:57;12.18;;;4.72;;
6735;SDS011;3405;50.576;12.364;2023-05-10T06:54:23;13.70;;;5.60;;
6735;SDS011;3405;50.576;12.364;2023-05-10T06:56:49;9.75;;;5.78;;
6735;SDS011;3405;50.576;12.364;2023-05-10T06:59:15;17.30;;;6.10;;
6735;SDS011;3405;50.576;12.364;2023-05-10T07:01:41;10.82;;;5.22;;
6735;SDS011;3405;50.576;12.364;2023-05-10T07:04:07;10.48;;;5.00;;
6735;SDS011;3405;50.576;12.364;2023-05-10T07:06:33;12.93;;;5.10;;
6735;SDS011;3405;50.576;12.364;2023-05-10T07:08:59;7.95;;;4.65;;
6735;SDS011;3405;50.576;12.364;2023-05-10T07:11:26;8.77;;;5.03;;
6735;SDS011;3405;50.576;12.364;2023-05-10T07:13:51;10.02;;;4.93;;
6735;SDS011;3405;50.576;12.364;2023-05-10T07:16:17;8.80;;;4.72;;
6735;SDS011;3405;50.576;12.364;2023-05-10T07:18:43;8.93;;;3.97;;
6735;SDS011;3405;50.576;12.364;2023-05-10T07:21:09;12.32;;;5.10;;
6735;SDS011;3405;50.576;12.364;2023-05-10T07:23:35;10.57;;;4.82;;
6735;SDS011;3405;50.576;12.364;2023-05-10T07:26:01;10.23;;;4.70;;
6735;SDS011;3405;50.576;12.364;2023-05-10T07:28:27;9.52;;;4.32;;
6735;SDS011;3405;50.576;12.364;2023-05-10T07:30:53;10.65;;;4.82;;
6735;SDS011;3405;50.576;12.364;2023-05-10T07:33:19;8.05;;;4.07;;
6735;SDS011;3405;50.576;12.364;2023-05-10T07:35:45;9.10;;;4.65;;
6735;SDS011;3405;50.576;12.364;2023-05-10T07:38:11;10.50;;;4.78;;
6735;SDS011;3405;50.576;12.364;2023-05-10T07:40:37;9.30;;;4.00;;
6735;SDS011;3405;50.576;12.364;2023-05-10T07:43:03;7.05;;;4.13;;
6735;SDS011;3405;50.576;12.364;2023-05-10T07:45:29;10.82;;;4.60;;
6735;SDS011;3405;50.576;12.364;2023-05-10T07:47:55;8.63;;;4.05;;
6735;SDS011;3405;50.576;12.364;2023-05-10T07:50:21;9.80;;;4.25;;
6735;SDS011;3405;50.576;12.364;2023-05-10T07:52:47;7.30;;;4.07;;
6735;SDS011;3405;50.576;12.364;2023-05-10T07:55:13;9.25;;;4.15;;
6735;SDS011;3405;50.576;12.364;2023-05-10T07:57:39;7.43;;;3.58;;
6735;SDS011;3405;50.576;12.364;2023-05-10T08:00:05;7.35;;;4.05;;
6735;SDS011;3405;50.576;12.364;2023-05-10T08:02:32;7.10;;;3.95;;
6735;SDS011;3405;50.576;12.364;2023-05-10T08:04:58;8.07;;;4.30;;
6735;SDS011;3405;50.576;12.364;2023-05-10T08:07:24;8.70;;;3.90;;
6735;SDS011;3405;50.576;12.364;2023-05-10T08:09:50;9.68;;;4.38;;
6735;SDS011;3405;50.576;12.364;2023-05-10T08:12:16;7.07;;;3.97;;
6735;SDS011;3405;50.576;12.364;2023-05-10T08:14:42;6.72;;;3.47;;
6735;SDS011;3405;50.576;12.364;2023-05-10T08:17:08;6.57;;;3.67;;
6735;SDS011;3405;50.576;12.364;2023-05-10T08:19:34;7.68;;;3.75;;
6735;SDS011;3405;50.576;12.364;2023-05-10T08:22:00;5.88;;;3.60;;
6735;SDS011;3405;50.576;12.364;2023-05-10T08:24:26;7.22;;;4.05;;
6735;SDS011;3405;50.576;12.364;2023-05-10T08:26:52;9.80;;;4.20;;
6735;SDS011;3405;50.576;12.364;2023-05-10T08:29:18;5.38;;;3.65;;
6735;SDS011;3405;50.576;12.364;2023-05-10T08:31:44;6.20;;;3.40;;
6735;SDS011;3405;50.576;12.364;2023-05-10T08:34:10;5.57;;;3.30;;
6735;SDS011;3405;50.576;12.364;2023-05-10T08:36:36;4.97;;;3.00;;
6735;SDS011;3405;50.576;12.364;2023-05-10T08:39:02;7.32;;;3.78;;
6735;SDS011;3405;50.576;12.364;2023-05-10T08:41:28;5.90;;;3.65;;
6735;SDS011;3405;50.576;12.364;2023-05-10T08:43:54;5.72;;;3.25;;
6735;SDS011;3405;50.576;12.364;2023-05-10T08:46:20;6.05;;;3.40;;
6735;SDS011;3405;50.576;12.364;2023-05-10T08:48:47;5.82;;;3.55;;
6735;SDS011;3405;50.576;12.364;2023-05-10T08:51:14;4.82;;;3.20;;
6735;SDS011;3405;50.576;12.364;2023-05-10T08:53:41;6.97;;;3.53;;
6735;SDS011;3405;50.576;12.364;2023-05-10T08:56:07;7.05;;;3.72;;
6735;SDS011;3405;50.576;12.364;2023-05-10T08:58:33;4.95;;;3.15;;
6735;SDS011;3405;50.576;12.364;2023-05-10T09:00:59;5.50;;;3.30;;
6735;SDS011;3405;50.576;12.364;2023-05-10T09:03:25;6.28;;;3.33;;
6735;SDS011;3405;50.576;12.364;2023-05-10T09:05:51;5.82;;;3.35;;
6735;SDS011;3405;50.576;12.364;2023-05-10T09:08:17;5.85;;;3.30;;
6735;SDS011;3405;50.576;12.364;2023-05-10T09:10:44;5.55;;;3.20;;
6735;SDS011;3405;50.576;12.364;2023-05-10T09:13:12;6.00;;;3.22;;
6735;SDS011;3405;50.576;12.364;2023-05-10T09:15:38;5.05;;;2.92;;
6735;SDS011;3405;50.576;12.364;2023-05-10T09:18:04;5.28;;;2.85;;
6735;SDS011;3405;50.576;12.364;2023-05-10T09:20:30;5.25;;;3.10;;
6735;SDS011;3405;50.576;12.364;2023-05-10T09:22:56;4.65;;;2.60;;
6735;SDS011;3405;50.576;12.364;2023-05-10T09:25:22;5.25;;;3.13;;
6735;SDS011;3405;50.576;12.364;2023-05-10T09:27:48;5.30;;;3.00;;
6735;SDS011;3405;50.576;12.364;2023-05-10T09:30:15;4.68;;;2.65;;
6735;SDS011;3405;50.576;12.364;2023-05-10T09:32:42;4.82;;;3.15;;
6735;SDS011;3405;50.576;12.364;2023-05-10T09:35:12;5.70;;;3.22;;
6735;SDS011;3405;50.576;12.364;2023-05-10T09:37:39;6.00;;;2.95;;
6735;SDS011;3405;50.576;12.364;2023-05-10T09:40:11;4.80;;;2.80;;
6735;SDS011;3405;50.576;12.364;2023-05-10T09:42:37;4.80;;;2.90;;
6735;SDS011;3405;50.576;12.364;2023-05-10T09:45:04;5.75;;;3.47;;
6735;SDS011;3405;50.576;12.364;2023-05-10T09:47:36;5.57;;;2.70;;
6735;SDS011;3405;50.576;12.364;2023-05-10T09:50:02;4.15;;;2.72;;
6735;SDS011;3405;50.576;12.364;2023-05-10T09:55:25;5.80;;;3.10;;
6735;SDS011;3405;50.576;12.364;2023-05-10T09:58:00;5.30;;;2.45;;
6735;SDS011;3405;50.576;12.364;2023-05-10T10:00:27;3.70;;;2.75;;
6735;SDS011;3405;50.576;12.364;2023-05-10T10:02:57;3.47;;;2.75;;
6735;SDS011;3405;50.576;12.364;2023-05-10T10:05:33;4.47;;;2.90;;
6735;SDS011;3405;50.576;12.364;2023-05-10T10:07:59;3.63;;;2.47;;
6735;SDS011;3405;50.576;12.364;2023-05-10T10:10:25;3.10;;;2.33;;
6735;SDS011;3405;50.576;12.364;2023-05-10T10:12:52;3.78;;;2.58;;
6735;SDS011;3405;50.576;12.364;2023-05-10T10:15:18;4.07;;;2.38;;
6735;SDS011;3405;50.576;12.364;2023-05-10T10:17:44;3.08;;;2.38;;
6735;SDS011;3405;50.576;12.364;2023-05-10T10:20:11;4.30;;;2.60;;
6735;SDS011;3405;50.576;12.364;2023-05-10T10:22:37;2.75;;;2.30;;
6735;SDS011;3405;50.576;12.364;2023-05-10T10:25:03;2.78;;;2.35;;
6735;SDS011;3405;50.576;12.364;2023-05-10T10:30:31;3.80;;;2.20;;
6735;SDS011;3405;50.576;12.364;2023-05-10T10:35:46;3.28;;;2.40;;
6735;SDS011;3405;50.576;12.364;2023-05-10T10:38:12;2.97;;;2.30;;
6735;SDS011;3405;50.576;12.364;2023-05-10T10:40:38;3.33;;;2.42;;
6735;SDS011;3405;50.576;12.364;2023-05-10T10:43:21;4.03;;;2.60;;
6735;SDS011;3405;50.576;12.364;2023-05-10T10:46:09;3.95;;;2.30;;
6735;SDS011;3405;50.576;12.364;2023-05-10T10:48:33;4.00;;;2.63;;
6735;SDS011;3405;50.576;12.364;2023-05-10T10:50:59;2.67;;;2.10;;
6735;SDS011;3405;50.576;12.364;2023-05-10T10:53:26;3.10;;;2.28;;
6735;SDS011;3405;50.576;12.364;2023-05-10T10:56:02;4.78;;;2.40;;
6735;SDS011;3405;50.576;12.364;2023-05-10T10:58:28;3.13;;;2.08;;
6735;SDS011;3405;50.576;12.364;2023-05-10T11:01:12;5.00;;;2.88;;
6735;SDS011;3405;50.576;12.364;2023-05-10T11:03:38;2.63;;;1.92;;
6735;SDS011;3405;50.576;12.364;2023-05-10T11:06:04;2.65;;;2.20;;
6735;SDS011;3405;50.576;12.364;2023-05-10T11:08:30;2.80;;;2.10;;
6735;SDS011;3405;50.576;12.364;2023-05-10T11:13:30;3.17;;;1.75;;
6735;SDS011;3405;50.576;12.364;2023-05-10T11:15:56;2.85;;;1.88;;
6735;SDS011;3405;50.576;12.364;2023-05-10T11:18:24;3.33;;;2.13;;
6735;SDS011;3405;50.576;12.364;2023-05-10T11:20:51;4.95;;;2.28;;
6735;SDS011;3405;50.576;12.364;2023-05-10T11:23:17;3.50;;;1.92;;
6735;SDS011;3405;50.576;12.364;2023-05-10T11:25:45;6.28;;;2.35;;
6735;SDS011;3405;50.576;12.364;2023-05-10T11:28:11;2.53;;;2.00;;
6735;SDS011;3405;50.576;12.364;2023-05-10T11:30:38;3.30;;;2.00;;
6735;SDS011;3405;50.576;12.364;2023-05-10T11:33:04;4.38;;;2.38;;
6735;SDS011;3405;50.576;12.364;2023-05-10T11:35:30;3.53;;;1.75;;
6735;SDS011;3405;50.576;12.364;2023-05-10T11:37:56;3.20;;;1.80;;
6735;SDS011;3405;50.576;12.364;2023-05-10T11:40:22;4.38;;;1.63;;
6735;SDS011;3405;50.576;12.364;2023-05-10T11:42:52;3.42;;;2.10;;
6735;SDS011;3405;50.576;12.364;2023-05-10T11:45:23;6.45;;;2.67;;
6735;SDS011;3405;50.576;12.364;2023-05-10T11:47:49;3.13;;;1.77;;
6735;SDS011;3405;50.576;12.364;2023-05-10T11:50:15;3.65;;;1.85;;
6735;SDS011;3405;50.576;12.364;2023-05-10T11:52:41;2.88;;;2.05;;
6735;SDS011;3405;50.576;12.364;2023-05-10T11:55:07;3.10;;;1.75;;
6735;SDS011;3405;50.576;12.364;2023-05-10T11:57:32;4.07;;;1.70;;
6735;SDS011;3405;50.576;12.364;2023-05-10T11:59:59;3.10;;;2.03;;
6735;SDS011;3405;50.576;12.364;2023-05-10T12:02:25;4.43;;;2.00;;
6735;SDS011;3405;50.576;12.364;2023-05-10T12:04:51;2.95;;;1.70;;
6735;SDS011;3405;50.576;12.364;2023-05-10T12:07:17;2.00;;;1.55;;
6735;SDS011;3405;50.576;12.364;2023-05-10T12:10:02;3.60;;;1.83;;
6735;SDS011;3405;50.576;12.364;2023-05-10T12:12:34;3.85;;;2.00;;
6735;SDS011;3405;50.576;12.364;2023-05-10T12:15:01;3.88;;;2.05;;
6735;SDS011;3405;50.576;12.364;2023-05-10T12:17:28;1.88;;;1.75;;
6735;SDS011;3405;50.576;12.364;2023-05-10T12:19:58;3.13;;;2.08;;
6735;SDS011;3405;50.576;12.364;2023-05-10T12:22:24;2.88;;;1.75;;
6735;SDS011;3405;50.576;12.364;2023-05-10T12:24:50;2.25;;;1.63;;
6735;SDS011;3405;50.576;12.364;2023-05-10T12:27:16;7.40;;;1.80;;
6735;SDS011;3405;50.576;12.364;2023-05-10T12:29:42;3.55;;;2.08;;
6735;SDS011;3405;50.576;12.364;2023-05-10T12:32:09;2.60;;;1.80;;
6735;SDS011;3405;50.576;12.364;2023-05-10T12:34:35;3.33;;;1.90;;
6735;SDS011;3405;50.576;12.364;2023-05-10T12:37:03;5.95;;;1.70;;
6735;SDS011;3405;50.576;12.364;2023-05-10T12:39:38;2.13;;;1.60;;
6735;SDS011;3405;50.576;12.364;2023-05-10T12:42:05;2.70;;;1.73;;
6735;SDS011;3405;50.576;12.364;2023-05-10T12:44:31;4.97;;;1.92;;
6735;SDS011;3405;50.576;12.364;2023-05-10T12:46:57;2.72;;;1.63;;
6735;SDS011;3405;50.576;12.364;2023-05-10T12:49:23;2.28;;;1.83;;
6735;SDS011;3405;50.576;12.364;2023-05-10T12:51:48;3.88;;;1.55;;
6735;SDS011;3405;50.576;12.364;2023-05-10T12:54:14;1.85;;;1.50;;
6735;SDS011;3405;50.576;12.364;2023-05-10T12:56:40;2.45;;;1.50;;
6735;SDS011;3405;50.576;12.364;2023-05-10T12:59:07;4.95;;;1.58;;
6735;SDS011;3405;50.576;12.364;2023-05-10T13:01:33;4.43;;;1.33;;
6735;SDS011;3405;50.576;12.364;2023-05-10T13:03:59;2.47;;;1.48;;
6735;SDS011;3405;50.576;12.364;2023-05-10T13:06:25;2.88;;;1.42;;
6735;SDS011;3405;50.576;12.364;2023-05-10T13:08:51;2.13;;;1.70;;
6735;SDS011;3405;50.576;12.364;2023-05-10T13:11:17;1.80;;;1.42;;
6735;SDS011;3405;50.576;12.364;2023-05-10T13:13:44;2.55;;;1.73;;
6735;SDS011;3405;50.576;12.364;2023-05-10T13:16:10;2.15;;;1.60;;
6735;SDS011;3405;50.576;12.364;2023-05-10T13:18:36;4.35;;;1.75;;
6735;SDS011;3405;50.576;12.364;2023-05-10T13:21:02;2.05;;;1.52;;
6735;SDS011;3405;50.576;12.364;2023-05-10T13:23:30;1.88;;;1.30;;
6735;SDS011;3405;50.576;12.364;2023-05-10T13:25:56;3.63;;;1.67;;
6735;SDS011;3405;50.576;12.364;2023-05-10T13:28:22;2.00;;;1.60;;
6735;SDS011;3405;50.576;12.364;2023-05-10T13:30:48;3.10;;;1.70;;
6735;SDS011;3405;50.576;12.364;2023-05-10T13:33:14;2.28;;;1.33;;
6735;SDS011;3405;50.576;12.364;2023-05-10T13:35:40;1.85;;;1.58;;
6735;SDS011;3405;50.576;12.364;2023-05-10T13:38:06;1.50;;;1.40;;
6735;SDS011;3405;50.576;12.364;2023-05-10T13:40:32;3.20;;;1.50;;
6735;SDS011;3405;50.576;12.364;2023-05-10T13:42:58;1.35;;;1.25;;
6735;SDS011;3405;50.576;12.364;2023-05-10T13:45:24;2.10;;;1.92;;
6735;SDS011;3405;50.576;12.364;2023-05-10T13:47:50;2.25;;;1.63;;
6735;SDS011;3405;50.576;12.364;2023-05-10T13:50:16;2.65;;;1.40;;
6735;SDS011;3405;50.576;12.364;2023-05-10T13:52:43;1.50;;;1.20;;
6735;SDS011;3405;50.576;12.364;2023-05-10T13:55:09;2.17;;;1.30;;
6735;SDS011;3405;50.576;12.364;2023-05-10T13:57:37;3.20;;;1.05;;
6735;SDS011;3405;50.576;12.364;2023-05-10T14:00:03;1.67;;;1.20;;
6735;SDS011;3405;50.576;12.364;2023-05-10T14:02:29;2.92;;;1.42;;
6735;SDS011;3405;50.576;12.364;2023-05-10T14:04:55;1.55;;;1.17;;
6735;SDS011;3405;50.576;12.364;2023-05-10T14:07:21;2.33;;;1.30;;
6735;SDS011;3405;50.576;12.364;2023-05-10T14:09:47;1.65;;;1.42;;
6735;SDS011;3405;50.576;12.364;2023-05-10T14:12:13;1.60;;;1.40;;
6735;SDS011;3405;50.576;12.364;2023-05-10T14:14:39;2.03;;;1.40;;
6735;SDS011;3405;50.576;12.364;2023-05-10T14:17:05;1.75;;;1.30;;
6735;SDS011;3405;50.576;12.364;2023-05-10T14:19:31;1.58;;;1.20;;
6735;SDS011;3405;50.576;12.364;2023-05-10T14:21:58;1.40;;;1.30;;
6735;SDS011;3405;50.576;12.364;2023-05-10T14:24:24;1.77;;;1.02;;
6735;SDS011;3405;50.576;12.364;2023-05-10T14:26:50;1.45;;;1.30;;
6735;SDS011;3405;50.576;12.364;2023-05-10T14:29:18;1.35;;;1.25;;
6735;SDS011;3405;50.576;12.364;2023-05-10T14:31:44;1.75;;;1.30;;
6735;SDS011;3405;50.576;12.364;2023-05-10T14:34:10;1.88;;;1.30;;
6735;SDS011;3405;50.576;12.364;2023-05-10T14:36:36;1.33;;;1.20;;
6735;SDS011;3405;50.576;12.364;2023-05-10T14:39:02;1.00;;;1.00;;
6735;SDS011;3405;50.576;12.364;2023-05-10T14:41:28;1.35;;;1.25;;
6735;SDS011;3405;50.576;12.364;2023-05-10T14:43:55;1.40;;;1.30;;
6735;SDS011;3405;50.576;12.364;2023-05-10T14:46:21;1.35;;;1.17;;
6735;SDS011;3405;50.576;12.364;2023-05-10T14:48:47;1.55;;;1.10;;
6735;SDS011;3405;50.576;12.364;2023-05-10T14:51:12;1.08;;;1.00;;
6735;SDS011;3405;50.576;12.364;2023-05-10T14:53:38;1.55;;;1.27;;
6735;SDS011;3405;50.576;12.364;2023-05-10T14:56:05;1.42;;;1.33;;
6735;SDS011;3405;50.576;12.364;2023-05-10T14:58:31;1.80;;;1.30;;
6735;SDS011;3405;50.576;12.364;2023-05-10T15:00:57;1.30;;;1.20;;
6735;SDS011;3405;50.576;12.364;2023-05-10T15:03:23;1.50;;;1.20;;
6735;SDS011;3405;50.576;12.364;2023-05-10T15:05:49;3.08;;;1.30;;
6735;SDS011;3405;50.576;12.364;2023-05-10T15:08:15;1.50;;;1.30;;
6735;SDS011;3405;50.576;12.364;2023-05-10T15:10:41;1.48;;;1.20;;
6735;SDS011;3405;50.576;12.364;2023-05-10T15:13:06;1.05;;;1.00;;
6735;SDS011;3405;50.576;12.364;2023-05-10T15:15:32;1.48;;;1.20;;
6735;SDS011;3405;50.576;12.364;2023-05-10T15:17:58;2.47;;;1.40;;
6735;SDS011;3405;50.576;12.364;2023-05-10T15:20:24;1.33;;;1.20;;